Time;durP1;ratioP1;P1;durP2;ratioP2;P2;SDS_P1;SDS_P2;PMS_P1;PMS_P2;Temp;Humidity;BMP_temperature;BMP_pressure;BME280_temperature;BME280_humidity;BME280_pressure;Samples;Min_cycle;Max_cycle;Signal;HPM_P1;HPM_P2
2022/09/10 00:00:14;;;;;;;;;;;;;;;25.50;43.83;100626.38;104471;1309;60491;-83
2022/09/10 00:02:39;;;;;;;;;;;;;;;25.49;44.00;100628.08;104450;1309;61832;-83
2022/09/10 00:05:06;;;;;;;;;;;;;;;25.49;43.80;100632.17;104442;1308;60497;-83
2022/09/10 00:07:31;;;;;;;;;;;;;;;25.49;43.86;100630.41;104489;1309;60489;-83
2022/09/10 00:09:57;;;;;;;;;;;;;;;25.49;43.95;100628.79;104441;1309;60471;-81
2022/09/10 00:12:23;;;;;;;;;;;;;;;25.48;43.96;100626.30;104341;1309;72721;-84
2022/09/10 00:14:50;;;;;;;;;;;;;;;25.49;43.82;100627.90;104374;1309;60492;-82
2022/09/10 00:17:15;;;;;;;;;;;;;;;25.48;43.85;100626.84;104292;1309;60504;-82
2022/09/10 00:19:42;;;;;;;;;;;;;;;25.49;43.93;100624.66;104257;1309;60487;-82
2022/09/10 00:22:09;;;;;;;;;;;;;;;25.49;43.97;100624.08;104233;1309;60487;-82
2022/09/10 00:24:34;;;;;;;;;;;;;;;25.49;43.87;100622.45;104284;1309;60479;-83
2022/09/10 00:27:00;;;;;;;;;;;;;;;25.49;43.94;100619.20;104421;1309;60576;-82
2022/09/10 00:29:26;;;;;;;;;;;;;;;25.50;44.01;100621.30;104443;1308;60446;-83
2022/09/10 00:31:53;;;;;;;;;;;;;;;25.50;43.99;100620.19;104199;1309;61178;-84
2022/09/10 00:34:19;;;;;;;;;;;;;;;25.51;43.92;100615.84;104257;1308;60588;-83
2022/09/10 00:36:45;;;;;;;;;;;;;;;25.51;43.98;100613.66;104299;1309;60427;-84
2022/09/10 00:39:12;;;;;;;;;;;;;;;25.52;43.98;100609.80;104187;1308;60529;-83
2022/09/10 00:41:38;;;;;;;;;;;;;;;25.51;43.91;100608.19;104198;1308;60451;-83
2022/09/10 00:44:24;;;;;;;;;;;;;;;25.52;43.97;100605.65;104281;1309;60478;-82
2022/09/10 00:46:50;;;;;;;;;;;;;;;25.52;43.97;100603.84;104647;1309;61288;-82
2022/09/10 00:49:21;;;;;;;;;;;;;;;25.52;43.93;100610.65;104439;1309;60478;-84
2022/09/10 00:51:47;;;;;;;;;;;;;;;25.52;43.96;100611.90;104587;1309;73677;-84
2022/09/10 00:54:13;;;;;;;;;;;;;;;25.52;43.95;100609.74;104437;1311;60479;-83
2022/09/10 00:56:38;;;;;;;;;;;;;;;25.52;44.02;100609.92;104487;1309;61716;-83
2022/09/10 00:59:04;;;;;;;;;;;;;;;25.51;43.97;100611.08;104584;1309;60492;-83
2022/09/10 01:01:32;;;;;;;;;;;;;;;25.51;43.87;100607.48;104417;1310;60526;-82
2022/09/10 01:03:58;;;;;;;;;;;;;;;25.50;43.92;100604.86;104525;1309;60498;-83
2022/09/10 01:06:23;;;;;;;;;;;;;;;25.50;43.94;100603.27;104484;1309;61181;-80
2022/09/10 01:08:48;;;;;;;;;;;;;;;25.50;44.01;100603.13;104410;1310;60583;-83
2022/09/10 01:11:23;;;;;;;;;;;;;;;25.49;43.95;100604.44;104499;1309;60621;-83
2022/09/10 01:13:54;;;;;;;;;;;;;;;25.49;43.83;100604.25;104439;1309;73004;-82
2022/09/10 01:16:38;;;;;;;;;;;;;;;25.49;44.06;100604.83;104448;1309;73948;-80
2022/09/10 01:19:33;;;;;;;;;;;;;;;25.49;43.86;100607.56;104439;1310;60476;-83
2022/09/10 01:22:10;;;;;;;;;;;;;;;25.49;43.97;100610.07;103833;1319;61596;-83
2022/09/10 01:24:51;;;;;;;;;;;;;;;25.48;43.98;100609.04;103980;1317;72808;-82
2022/09/10 01:27:52;;;;;;;;;;;;;;;25.48;43.90;100604.72;103990;1317;73894;-83
2022/09/10 01:30:22;;;;;;;;;;;;;;;25.48;44.11;100606.71;103229;1322;61324;-83
2022/09/10 01:32:50;;;;;;;;;;;;;;;25.48;43.96;100608.67;103002;1322;60658;-82
2022/09/10 01:35:21;;;;;;;;;;;;;;;25.48;43.96;100608.13;102996;1323;72727;-83
2022/09/10 01:37:47;;;;;;;;;;;;;;;25.48;43.99;100608.69;103049;1323;74088;-83
2022/09/10 01:40:13;;;;;;;;;;;;;;;25.48;44.05;100611.75;103078;1323;61115;-86
2022/09/10 01:42:39;;;;;;;;;;;;;;;25.47;44.11;100616.84;103199;1323;61702;-83
2022/09/10 01:45:05;;;;;;;;;;;;;;;25.48;43.95;100617.14;103150;1323;60519;-83
2022/09/10 01:47:50;;;;;;;;;;;;;;;25.48;44.05;100618.44;103168;1323;60797;-83
2022/09/10 01:50:19;;;;;;;;;;;;;;;25.48;44.05;100617.01;103183;1322;61259;-84
2022/09/10 01:52:50;;;;;;;;;;;;;;;25.47;44.08;100613.96;103102;1323;62247;-84
2022/09/10 01:55:33;;;;;;;;;;;;;;;25.47;44.07;100607.17;102932;1326;73540;-85
2022/09/10 01:58:20;;;;;;;;;;;;;;;25.47;44.23;100609.66;103145;1316;73938;-82
2022/09/10 02:00:48;;;;;;;;;;;;;;;25.47;43.97;100609.13;104217;1316;60110;-83
2022/09/10 02:03:15;;;;;;;;;;;;;;;25.47;44.05;100608.41;104221;1316;60095;-82
2022/09/10 02:05:40;;;;;;;;;;;;;;;25.47;44.03;100603.39;104430;1309;73068;-83
2022/09/10 02:08:16;;;;;;;;;;;;;;;25.46;44.09;100600.00;104412;1310;60568;-82
2022/09/10 02:10:58;;;;;;;;;;;;;;;25.47;44.08;100601.23;104448;1309;62126;-83
2022/09/10 02:13:24;;;;;;;;;;;;;;;25.47;43.92;100604.11;104428;1311;61683;-83
2022/09/10 02:15:51;;;;;;;;;;;;;;;25.46;44.03;100600.53;104424;1310;60562;-84
2022/09/10 02:18:18;;;;;;;;;;;;;;;25.47;44.27;100593.31;104449;1309;60378;-83
2022/09/10 02:20:44;;;;;;;;;;;;;;;25.47;43.94;100592.06;104447;1310;60958;-83
2022/09/10 02:23:09;;;;;;;;;;;;;;;25.47;44.10;100587.37;104457;1310;60589;-83
2022/09/10 02:25:36;;;;;;;;;;;;;;;25.47;44.01;100582.34;104450;1309;78626;-82
2022/09/10 02:28:03;;;;;;;;;;;;;;;25.47;44.09;100572.61;104410;1310;60622;-82
2022/09/10 02:30:29;;;;;;;;;;;;;;;25.46;44.07;100568.52;104409;1310;60462;-83
2022/09/10 02:32:54;;;;;;;;;;;;;;;25.46;44.08;100566.69;104412;1310;60601;-84
2022/09/10 02:35:20;;;;;;;;;;;;;;;25.46;44.09;100567.56;104425;1310;60586;-84
2022/09/10 02:37:45;;;;;;;;;;;;;;;25.46;44.20;100569.42;104507;1309;60455;-82
2022/09/10 02:40:13;;;;;;;;;;;;;;;25.46;44.17;100572.48;104427;1309;73962;-83
2022/09/10 02:42:39;;;;;;;;;;;;;;;25.46;44.11;100573.60;104421;1310;60405;-83
2022/09/10 02:45:04;;;;;;;;;;;;;;;25.45;44.20;100573.79;104472;1310;60490;-84
2022/09/10 02:47:30;;;;;;;;;;;;;;;25.45;44.21;100572.02;104444;1309;60528;-84
2022/09/10 02:49:55;;;;;;;;;;;;;;;25.46;44.16;100567.48;104470;1309;60825;-83
2022/09/10 02:52:21;;;;;;;;;;;;;;;25.46;44.05;100572.14;104465;1310;60473;-83
2022/09/10 02:54:49;;;;;;;;;;;;;;;25.45;44.22;100580.31;104451;1309;60473;-82
2022/09/10 02:57:14;;;;;;;;;;;;;;;25.45;44.26;100587.30;104457;1310;60330;-82
2022/09/10 02:59:40;;;;;;;;;;;;;;;25.46;44.15;100583.53;104405;1310;61677;-83
2022/09/10 03:02:05;;;;;;;;;;;;;;;25.45;44.23;100584.60;104417;1311;60594;-83
2022/09/10 03:04:30;;;;;;;;;;;;;;;25.46;44.18;100591.43;104462;1310;61786;-83
2022/09/10 03:06:56;;;;;;;;;;;;;;;25.45;44.19;100590.55;104501;1310;59423;-84
2022/09/10 03:09:21;;;;;;;;;;;;;;;25.45;44.23;100590.21;104446;1309;60459;-83
2022/09/10 03:11:47;;;;;;;;;;;;;;;25.45;44.31;100592.70;104429;1310;60462;-80
2022/09/10 03:14:19;;;;;;;;;;;;;;;25.46;44.12;100593.42;104423;1309;60499;-83
2022/09/10 03:16:44;;;;;;;;;;;;;;;25.45;44.46;100587.71;104449;1310;61075;-83
2022/09/10 03:19:11;;;;;;;;;;;;;;;25.45;44.26;100588.23;104457;1309;60571;-83
2022/09/10 03:21:40;;;;;;;;;;;;;;;25.45;44.27;100585.71;104423;1310;60595;-83
2022/09/10 03:24:06;;;;;;;;;;;;;;;25.44;44.23;100588.65;104390;1310;75022;-84
2022/09/10 03:26:31;;;;;;;;;;;;;;;25.45;44.24;100588.41;104418;1310;60473;-82
2022/09/10 03:28:57;;;;;;;;;;;;;;;25.45;44.30;100587.51;104471;1310;60521;-84
2022/09/10 03:31:22;;;;;;;;;;;;;;;25.45;44.45;100590.75;104421;1309;60555;-83
2022/09/10 03:33:48;;;;;;;;;;;;;;;25.45;44.43;100591.86;104465;1309;60688;-83
2022/09/10 03:36:13;;;;;;;;;;;;;;;25.45;44.49;100594.02;104439;1309;73849;-83
2022/09/10 03:38:39;;;;;;;;;;;;;;;25.45;44.33;100597.08;104431;1310;60514;-83
2022/09/10 03:41:05;;;;;;;;;;;;;;;25.45;44.45;100596.89;104414;1310;60629;-83
2022/09/10 03:43:30;;;;;;;;;;;;;;;25.45;44.48;100596.72;104422;1310;60455;-83
2022/09/10 03:45:56;;;;;;;;;;;;;;;25.45;44.50;100597.06;104428;1309;60513;-83
2022/09/10 03:48:21;;;;;;;;;;;;;;;25.45;44.45;100596.05;104497;1310;60462;-84
2022/09/10 03:50:48;;;;;;;;;;;;;;;25.45;44.38;100598.55;104438;1309;61004;-83
2022/09/10 03:53:14;;;;;;;;;;;;;;;25.44;44.26;100601.83;104425;1310;60487;-82
2022/09/10 03:55:42;;;;;;;;;;;;;;;25.45;44.35;100602.33;104418;1310;60597;-83
2022/09/10 03:58:07;;;;;;;;;;;;;;;25.44;44.35;100599.11;104417;1310;76417;-82
2022/09/10 04:00:32;;;;;;;;;;;;;;;25.44;44.57;100598.61;104452;1309;60625;-82
2022/09/10 04:02:59;;;;;;;;;;;;;;;25.45;44.40;100605.23;104415;1310;60465;-84
2022/09/10 04:05:26;;;;;;;;;;;;;;;25.44;44.59;100609.02;104460;1309;60571;-84
2022/09/10 04:07:53;;;;;;;;;;;;;;;25.44;44.61;100607.77;104427;1309;60630;-83
2022/09/10 04:10:19;;;;;;;;;;;;;;;25.45;44.61;100608.07;104471;1309;60520;-83
2022/09/10 04:12:44;;;;;;;;;;;;;;;25.45;44.54;100605.95;104458;1310;60482;-83
2022/09/10 04:15:11;;;;;;;;;;;;;;;25.45;44.51;100605.16;104422;1308;60456;-82
2022/09/10 04:17:37;;;;;;;;;;;;;;;25.45;44.45;100598.71;104438;1309;61286;-83
2022/09/10 04:20:03;;;;;;;;;;;;;;;25.44;44.64;100594.59;104640;1309;62094;-83
2022/09/10 04:22:29;;;;;;;;;;;;;;;25.45;44.68;100593.30;104492;1309;61134;-83
2022/09/10 04:24:55;;;;;;;;;;;;;;;25.45;44.66;100592.57;104463;1309;62314;-83
2022/09/10 04:27:21;;;;;;;;;;;;;;;25.45;44.71;100593.09;104602;1309;61375;-83
2022/09/10 04:29:47;;;;;;;;;;;;;;;25.45;44.73;100594.19;104594;1309;61164;-83
2022/09/10 04:32:12;;;;;;;;;;;;;;;25.45;44.66;100590.06;104406;1309;61305;-83
2022/09/10 04:34:38;;;;;;;;;;;;;;;25.45;44.61;100590.40;104512;1309;61398;-83
2022/09/10 04:37:03;;;;;;;;;;;;;;;25.45;44.65;100594.70;104466;1309;61318;-83
2022/09/10 04:39:29;;;;;;;;;;;;;;;25.45;44.74;100596.36;104506;1308;74218;-83
2022/09/10 04:41:54;;;;;;;;;;;;;;;25.45;44.69;100592.36;104611;1309;61330;-83
2022/09/10 04:44:20;;;;;;;;;;;;;;;25.46;44.75;100591.80;104438;1312;61348;-83
2022/09/10 04:46:46;;;;;;;;;;;;;;;25.45;44.98;100592.16;104351;1313;61430;-83
2022/09/10 04:49:12;;;;;;;;;;;;;;;25.46;44.78;100591.44;104428;1311;61221;-83
2022/09/10 04:51:39;;;;;;;;;;;;;;;25.46;44.75;100587.45;104486;1309;61340;-83
2022/09/10 04:54:04;;;;;;;;;;;;;;;25.46;44.71;100589.81;104495;1309;74837;-83
2022/09/10 04:56:30;;;;;;;;;;;;;;;25.46;44.87;100587.08;104453;1310;61278;-83
2022/09/10 04:58:55;;;;;;;;;;;;;;;25.46;44.87;100582.17;104446;1312;61405;-83
2022/09/10 05:01:21;;;;;;;;;;;;;;;25.46;44.80;100575.57;104517;1309;61286;-84
2022/09/10 05:03:46;;;;;;;;;;;;;;;25.46;44.92;100578.78;104457;1310;61758;-84
2022/09/10 05:06:12;;;;;;;;;;;;;;;25.47;44.84;100587.00;104284;1309;74900;-84
2022/09/10 05:08:37;;;;;;;;;;;;;;;25.47;44.77;100588.78;104509;1309;61297;-83
2022/09/10 05:11:03;;;;;;;;;;;;;;;25.47;44.86;100588.82;104480;1309;61490;-84
2022/09/10 05:13:29;;;;;;;;;;;;;;;25.47;44.92;100593.68;104428;1309;61757;-83
2022/09/10 05:15:57;;;;;;;;;;;;;;;25.47;44.90;100589.67;104456;1309;61307;-83
2022/09/10 05:18:25;;;;;;;;;;;;;;;25.47;44.91;100579.53;104595;1308;61386;-84
2022/09/10 05:20:51;;;;;;;;;;;;;;;25.47;45.04;100572.00;104431;1310;62022;-83
2022/09/10 05:23:16;;;;;;;;;;;;;;;25.48;44.89;100565.31;104481;1309;61250;-83
2022/09/10 05:25:42;;;;;;;;;;;;;;;25.47;44.68;100557.79;104460;1309;61268;-83
2022/09/10 05:28:08;;;;;;;;;;;;;;;25.48;45.01;100562.92;104569;1308;61297;-83
2022/09/10 05:30:33;;;;;;;;;;;;;;;25.47;44.98;100567.65;104505;1309;61246;-83
2022/09/10 05:33:00;;;;;;;;;;;;;;;25.48;44.99;100570.85;104616;1309;61368;-82
2022/09/10 05:35:25;;;;;;;;;;;;;;;25.48;45.04;100573.73;104558;1309;73281;-82
2022/09/10 05:37:51;;;;;;;;;;;;;;;25.48;45.08;100577.36;104427;1311;61396;-83
2022/09/10 05:40:16;;;;;;;;;;;;;;;25.48;45.19;100573.53;104447;1312;61296;-83
2022/09/10 05:42:42;;;;;;;;;;;;;;;25.49;45.14;100570.04;104499;1312;61379;-83
2022/09/10 05:45:09;;;;;;;;;;;;;;;25.49;45.19;100570.44;104542;1309;61244;-85
2022/09/10 05:47:35;;;;;;;;;;;;;;;25.49;45.02;100565.72;104422;1309;72807;-83
2022/09/10 05:50:00;;;;;;;;;;;;;;;25.50;45.16;100562.04;104542;1309;61196;-83
2022/09/10 05:52:26;;;;;;;;;;;;;;;25.50;45.10;100558.23;104469;1309;61416;-83
2022/09/10 05:54:53;;;;;;;;;;;;;;;25.51;45.03;100557.60;104503;1308;61245;-84
2022/09/10 05:57:18;;;;;;;;;;;;;;;25.52;45.19;100555.52;104318;1310;61305;-82
2022/09/10 05:59:45;;;;;;;;;;;;;;;25.53;45.12;100559.07;104306;1308;61279;-83
2022/09/10 06:02:16;;;;;;;;;;;;;;;25.53;45.30;100558.29;104393;1307;61412;-84
2022/09/10 06:04:42;;;;;;;;;;;;;;;25.54;45.29;100551.54;104350;1309;61576;-84
2022/09/10 06:07:08;;;;;;;;;;;;;;;25.55;45.33;100551.66;104387;1309;61310;-83
2022/09/10 06:09:33;;;;;;;;;;;;;;;25.56;45.46;100553.19;104415;1309;61288;-83
2022/09/10 06:11:58;;;;;;;;;;;;;;;25.57;45.44;100562.23;104371;1309;61269;-82
2022/09/10 06:14:24;;;;;;;;;;;;;;;25.58;45.38;100566.66;104554;1309;61421;-82
2022/09/10 06:16:51;;;;;;;;;;;;;;;25.59;45.45;100562.94;104540;1307;61478;-82
2022/09/10 06:19:18;;;;;;;;;;;;;;;25.60;45.48;100560.35;104440;1309;72801;-85
2022/09/10 06:21:45;;;;;;;;;;;;;;;25.61;45.61;100559.89;104648;1309;74770;-82
2022/09/10 06:24:11;;;;;;;;;;;;;;;25.62;45.61;100564.50;104528;1309;61191;-82
2022/09/10 06:26:37;;;;;;;;;;;;;;;25.63;45.69;100566.58;104525;1309;61192;-83
2022/09/10 06:29:03;;;;;;;;;;;;;;;25.64;45.68;100561.27;104430;1309;61477;-84
2022/09/10 06:31:29;;;;;;;;;;;;;;;25.64;45.84;100561.96;104514;1309;61173;-84
2022/09/10 06:33:55;;;;;;;;;;;;;;;25.65;45.75;100566.77;104532;1309;61480;-83
2022/09/10 06:36:20;;;;;;;;;;;;;;;25.65;45.75;100567.96;104522;1309;61368;-83
2022/09/10 06:38:48;;;;;;;;;;;;;;;25.66;45.71;100567.70;104496;1312;61313;-84
2022/09/10 06:41:14;;;;;;;;;;;;;;;25.68;45.84;100565.96;104525;1308;72877;-83
2022/09/10 06:43:41;;;;;;;;;;;;;;;25.68;45.78;100564.48;104634;1309;75644;-82
2022/09/10 06:46:14;;;;;;;;;;;;;;;25.68;45.96;100566.42;104617;1309;61362;-84
2022/09/10 06:48:40;;;;;;;;;;;;;;;25.69;45.87;100571.98;104528;1309;61315;-84
2022/09/10 06:51:07;;;;;;;;;;;;;;;25.69;45.91;100576.58;104644;1308;61812;-83
2022/09/10 06:53:32;;;;;;;;;;;;;;;25.70;46.02;100576.76;104650;1309;61307;-83
2022/09/10 06:55:58;;;;;;;;;;;;;;;25.70;46.07;100581.06;104534;1307;61279;-83
2022/09/10 06:58:24;;;;;;;;;;;;;;;25.70;46.06;100584.83;104466;1309;61387;-84
2022/09/10 07:00:49;;;;;;;;;;;;;;;25.70;46.05;100587.19;104431;1309;61313;-83
2022/09/10 07:03:15;;;;;;;;;;;;;;;25.69;46.08;100596.76;104546;1309;61372;-83
2022/09/10 07:05:41;;;;;;;;;;;;;;;25.69;46.10;100597.88;104526;1307;75365;-82
2022/09/10 07:08:07;;;;;;;;;;;;;;;25.69;45.99;100602.62;104535;1309;61317;-82
2022/09/10 07:10:32;;;;;;;;;;;;;;;25.69;46.17;100602.45;104461;1309;61276;-79
2022/09/10 07:13:00;;;;;;;;;;;;;;;25.68;46.25;100601.23;104498;1309;61313;-83
2022/09/10 07:15:26;;;;;;;;;;;;;;;25.68;46.26;100599.08;104528;1309;61285;-83
2022/09/10 07:17:53;;;;;;;;;;;;;;;25.68;46.14;100597.77;104684;1309;61258;-83
2022/09/10 07:20:18;;;;;;;;;;;;;;;25.68;46.26;100594.39;104535;1309;61290;-83
2022/09/10 07:22:44;;;;;;;;;;;;;;;25.68;46.24;100587.39;104415;1308;61333;-83
2022/09/10 07:25:10;;;;;;;;;;;;;;;25.69;46.25;100586.39;104410;1309;61388;-83
2022/09/10 07:27:36;;;;;;;;;;;;;;;25.69;46.19;100582.41;104545;1309;61286;-83
2022/09/10 07:30:01;;;;;;;;;;;;;;;25.69;46.31;100582.18;104474;1309;61298;-83
2022/09/10 07:32:28;;;;;;;;;;;;;;;25.69;46.34;100584.89;104458;1309;61304;-84
2022/09/10 07:34:54;;;;;;;;;;;;;;;25.70;46.24;100586.11;104519;1309;61173;-83
2022/09/10 07:37:21;;;;;;;;;;;;;;;25.71;46.29;100593.40;104640;1309;61118;-85
2022/09/10 07:39:47;;;;;;;;;;;;;;;25.71;46.28;100600.60;104542;1309;61270;-84
2022/09/10 07:42:13;;;;;;;;;;;;;;;25.72;46.34;100600.15;104651;1309;61354;-83
2022/09/10 07:44:39;;;;;;;;;;;;;;;25.72;46.38;100597.92;104525;1309;61375;-81
2022/09/10 07:47:04;;;;;;;;;;;;;;;25.72;46.50;100600.49;104505;1309;61350;-81
2022/09/10 07:49:31;;;;;;;;;;;;;;;25.72;46.37;100602.66;104596;1309;61282;-82
2022/09/10 07:51:57;;;;;;;;;;;;;;;25.72;46.46;100595.48;104519;1309;61402;-80
2022/09/10 07:54:23;;;;;;;;;;;;;;;25.72;46.44;100591.33;104491;1311;61343;-82
2022/09/10 07:56:49;;;;;;;;;;;;;;;25.72;46.58;100589.14;104598;1309;73001;-86
2022/09/10 07:59:15;;;;;;;;;;;;;;;25.72;46.40;100582.27;104506;1309;61277;-84
2022/09/10 08:01:40;;;;;;;;;;;;;;;25.72;46.40;100581.74;104543;1307;61295;-84
2022/09/10 08:04:06;;;;;;;;;;;;;;;25.72;46.34;100580.46;104601;1309;61268;-83
2022/09/10 08:06:32;;;;;;;;;;;;;;;25.72;46.31;100582.99;104523;1309;61291;-81
2022/09/10 08:08:58;;;;;;;;;;;;;;;25.72;46.52;100582.07;104500;1308;61350;-81
2022/09/10 08:11:25;;;;;;;;;;;;;;;25.73;46.35;100582.94;104540;1309;61224;-84
2022/09/10 08:13:51;;;;;;;;;;;;;;;25.73;46.50;100584.54;104512;1309;61266;-84
2022/09/10 08:16:21;;;;;;;;;;;;;;;25.73;46.55;100589.38;104547;1309;61302;-83
2022/09/10 08:18:47;;;;;;;;;;;;;;;25.74;46.61;100587.17;104557;1308;72632;-84
2022/09/10 08:21:13;;;;;;;;;;;;;;;25.74;46.53;100588.73;104507;1309;61310;-84
2022/09/10 08:23:38;;;;;;;;;;;;;;;25.73;46.49;100580.53;104483;1309;61332;-84
2022/09/10 08:26:05;;;;;;;;;;;;;;;25.74;46.48;100581.17;104699;1308;61272;-83
2022/09/10 08:28:31;;;;;;;;;;;;;;;25.74;46.53;100574.65;104471;1309;61345;-82
2022/09/10 08:30:56;;;;;;;;;;;;;;;25.74;46.51;100574.45;104382;1313;61301;-83
2022/09/10 08:33:23;;;;;;;;;;;;;;;25.76;46.56;100572.18;104405;1312;75034;-82
2022/09/10 08:35:53;;;;;;;;;;;;;;;25.75;46.60;100564.32;104342;1312;61172;-82
2022/09/10 08:38:19;;;;;;;;;;;;;;;25.75;46.57;100561.96;104361;1312;62531;-83
2022/09/10 08:40:44;;;;;;;;;;;;;;;25.75;46.67;100563.02;104402;1312;61219;-83
2022/09/10 08:43:10;;;;;;;;;;;;;;;25.75;46.61;100559.80;104393;1312;61583;-83
2022/09/10 08:45:36;;;;;;;;;;;;;;;25.76;46.53;100556.33;104406;1312;61307;-84
2022/09/10 08:48:09;;;;;;;;;;;;;;;25.76;46.54;100554.00;104389;1312;61243;-86
2022/09/10 08:50:37;;;;;;;;;;;;;;;25.75;46.59;100554.91;104346;1312;72759;-82
2022/09/10 08:53:17;;;;;;;;;;;;;;;25.75;46.64;100554.36;104400;1312;75968;-83
2022/09/10 08:55:43;;;;;;;;;;;;;;;25.76;46.73;100548.23;104323;1312;61335;-82
2022/09/10 08:58:11;;;;;;;;;;;;;;;25.76;46.64;100545.52;104387;1312;61401;-83
2022/09/10 09:00:38;;;;;;;;;;;;;;;25.76;46.57;100542.83;104384;1312;73767;-83
2022/09/10 09:03:04;;;;;;;;;;;;;;;25.76;46.52;100545.50;104484;1309;61485;-82
2022/09/10 09:05:54;;;;;;;;;;;;;;;25.76;46.51;100542.65;104461;1309;61435;-83
2022/09/10 09:08:20;;;;;;;;;;;;;;;25.76;46.57;100535.79;104550;1309;61161;-85
2022/09/10 09:10:52;;;;;;;;;;;;;;;25.76;46.55;100535.41;104449;1309;72850;-83
2022/09/10 09:13:33;;;;;;;;;;;;;;;25.76;46.38;100531.63;104549;1309;75700;-83
2022/09/10 09:16:14;;;;;;;;;;;;;;;25.76;46.48;100531.10;104653;1308;60990;-83
2022/09/10 09:18:56;;;;;;;;;;;;;;;25.76;46.50;100530.36;104651;1308;61162;-82
2022/09/10 09:21:38;;;;;;;;;;;;;;;25.76;46.52;100531.97;104456;1309;72714;-83
2022/09/10 09:24:06;;;;;;;;;;;;;;;25.76;46.58;100532.85;104633;1308;74698;-83
2022/09/10 09:26:34;;;;;;;;;;;;;;;25.76;46.57;100529.23;104485;1309;61395;-82
2022/09/10 09:29:04;;;;;;;;;;;;;;;25.76;46.52;100525.45;104432;1311;61283;-83
2022/09/10 09:31:31;;;;;;;;;;;;;;;25.76;46.67;100519.54;104505;1309;73967;-82
2022/09/10 09:34:06;;;;;;;;;;;;;;;25.76;46.70;100519.37;104460;1309;75770;-82
2022/09/10 09:36:35;;;;;;;;;;;;;;;25.76;46.54;100517.88;104553;1308;61236;-83
2022/09/10 09:39:01;;;;;;;;;;;;;;;25.76;46.59;100514.25;104545;1309;61183;-85
2022/09/10 09:41:32;;;;;;;;;;;;;;;25.76;46.65;100513.02;104473;1309;61282;-83
2022/09/10 09:44:21;;;;;;;;;;;;;;;25.76;46.57;100512.13;104663;1307;75738;-82
2022/09/10 09:46:48;;;;;;;;;;;;;;;25.76;46.64;100505.50;104544;1309;61183;-83
2022/09/10 09:49:15;;;;;;;;;;;;;;;25.76;46.49;100506.41;104510;1309;61275;-82
2022/09/10 09:51:44;;;;;;;;;;;;;;;25.75;46.62;100502.46;104534;1309;72700;-83
2022/09/10 09:54:14;;;;;;;;;;;;;;;25.76;46.50;100494.87;104313;1309;73745;-83
2022/09/10 09:56:41;;;;;;;;;;;;;;;25.76;46.51;100485.49;104512;1309;61291;-82
2022/09/10 09:59:10;;;;;;;;;;;;;;;25.76;46.59;100486.03;104549;1307;61793;-84
2022/09/10 10:01:38;;;;;;;;;;;;;;;25.76;46.51;100481.70;103354;1309;1481358;-84
2022/09/10 10:04:05;;;;;;;;;;;;;;;25.76;46.49;100477.05;104633;1309;76209;-80
2022/09/10 10:06:31;;;;;;;;;;;;;;;25.75;46.63;100472.55;104541;1309;61160;-83
2022/09/10 10:09:04;;;;;;;;;;;;;;;25.76;46.47;100471.08;104491;1309;61414;-82
2022/09/10 10:11:44;;;;;;;;;;;;;;;25.76;46.50;100468.54;104631;1309;72743;-83
2022/09/10 10:14:19;;;;;;;;;;;;;;;25.75;46.55;100462.06;104516;1308;76028;-82
2022/09/10 10:16:47;;;;;;;;;;;;;;;25.75;46.63;100458.31;104666;1308;61170;-83
2022/09/10 10:19:33;;;;;;;;;;;;;;;25.75;46.53;100464.27;104572;1309;61342;-83
2022/09/10 10:22:15;;;;;;;;;;;;;;;25.75;46.38;100456.70;104664;1307;72874;-84
2022/09/10 10:24:41;;;;;;;;;;;;;;;25.75;46.64;100454.90;104628;1309;75171;-84
2022/09/10 10:27:16;;;;;;;;;;;;;;;25.75;46.55;100444.83;104552;1308;61274;-87
2022/09/10 10:29:50;;;;;;;;;;;;;;;25.75;46.46;100440.52;104664;1309;61650;-83
2022/09/10 10:32:16;;;;;;;;;;;;;;;25.75;46.50;100438.37;104648;1308;72785;-84
2022/09/10 10:34:46;;;;;;;;;;;;;;;25.75;46.57;100439.23;104422;1309;75934;-82
2022/09/10 10:37:32;;;;;;;;;;;;;;;25.75;46.66;100440.16;104577;1309;61317;-82
2022/09/10 10:40:06;;;;;;;;;;;;;;;25.75;46.33;100436.89;104566;1309;61549;-84
2022/09/10 10:42:37;;;;;;;;;;;;;;;25.75;46.43;100439.02;104643;1309;72081;-84
2022/09/10 10:45:07;;;;;;;;;;;;;;;25.75;46.44;100441.05;104611;1308;74577;-85
2022/09/10 10:47:42;;;;;;;;;;;;;;;25.75;46.43;100436.35;104613;1308;61144;-83
2022/09/10 10:50:12;;;;;;;;;;;;;;;25.75;46.48;100435.44;104574;1309;61256;-83
2022/09/10 10:52:40;;;;;;;;;;;;;;;25.75;46.38;100430.05;104343;1308;72184;-82
2022/09/10 10:55:18;;;;;;;;;;;;;;;25.75;46.35;100424.45;104448;1309;74678;-84
2022/09/10 10:57:44;;;;;;;;;;;;;;;25.76;46.53;100423.15;104270;1309;61409;-83
2022/09/10 11:00:11;;;;;;;;;;;;;;;25.75;46.47;100423.36;104574;1308;61252;-83
2022/09/10 11:02:42;;;;;;;;;;;;;;;25.76;46.40;100421.67;104613;1309;71733;-83
2022/09/10 11:05:17;;;;;;;;;;;;;;;25.76;46.52;100422.34;104640;1309;76242;-83
2022/09/10 11:07:43;;;;;;;;;;;;;;;25.76;46.43;100421.26;104615;1309;61311;-83
2022/09/10 11:10:11;;;;;;;;;;;;;;;25.77;46.42;100421.59;104318;1308;61279;-84
2022/09/10 11:12:40;;;;;;;;;;;;;;;25.77;46.32;100415.45;104365;1309;74474;-83
2022/09/10 11:15:14;;;;;;;;;;;;;;;25.77;46.40;100417.58;104564;1309;74986;-81
2022/09/10 11:17:46;;;;;;;;;;;;;;;25.78;46.33;100413.77;104614;1309;61223;-83
2022/09/10 11:20:17;;;;;;;;;;;;;;;25.78;46.58;100408.16;104571;1309;61469;-83
2022/09/10 11:22:50;;;;;;;;;;;;;;;25.78;46.27;100402.21;104497;1309;72098;-83
2022/09/10 11:25:39;;;;;;;;;;;;;;;25.78;46.41;100398.29;104473;1309;75727;-83
2022/09/10 11:28:15;;;;;;;;;;;;;;;25.78;46.31;100396.44;104386;1309;61178;-84
2022/09/10 11:30:41;;;;;;;;;;;;;;;25.78;46.33;100392.11;104461;1309;61361;-83
2022/09/10 11:33:14;;;;;;;;;;;;;;;25.78;46.43;100388.18;104282;1309;73961;-83
2022/09/10 11:35:41;;;;;;;;;;;;;;;25.78;46.35;100384.74;104303;1309;76077;-84
2022/09/10 11:38:21;;;;;;;;;;;;;;;25.78;46.30;100381.15;104314;1308;61186;-83
2022/09/10 11:40:51;;;;;;;;;;;;;;;25.79;46.41;100384.28;104488;1309;61290;-83
2022/09/10 11:43:43;;;;;;;;;;;;;;;25.79;46.38;100380.32;104465;1309;73824;-84
2022/09/10 11:46:09;;;;;;;;;;;;;;;25.79;46.41;100376.30;104352;1309;74810;-82
2022/09/10 11:48:39;;;;;;;;;;;;;;;25.80;46.23;100374.80;104501;1309;61337;-82
2022/09/10 11:51:07;;;;;;;;;;;;;;;25.81;46.21;100370.77;104236;1308;61419;-82
2022/09/10 11:53:33;;;;;;;;;;;;;;;25.81;46.27;100366.25;104317;1309;72268;-83
2022/09/10 11:56:21;;;;;;;;;;;;;;;25.81;46.34;100362.98;104552;1309;61298;-83
2022/09/10 11:58:47;;;;;;;;;;;;;;;25.82;46.38;100365.58;104430;1309;61478;-83
2022/09/10 12:01:38;;;;;;;;;;;;;;;25.82;46.27;100366.64;104354;1309;61329;-83
2022/09/10 12:04:11;;;;;;;;;;;;;;;25.82;46.22;100362.13;104244;1309;72427;-82
2022/09/10 12:06:43;;;;;;;;;;;;;;;25.83;46.11;100361.34;104419;1309;74810;-84
2022/09/10 12:09:14;;;;;;;;;;;;;;;25.83;46.26;100356.45;104434;1309;61209;-84
2022/09/10 12:11:50;;;;;;;;;;;;;;;25.84;46.19;100361.20;104528;1309;61272;-83
2022/09/10 12:14:18;;;;;;;;;;;;;;;25.84;46.15;100359.40;104563;1308;73473;-83
2022/09/10 12:16:45;;;;;;;;;;;;;;;25.85;46.28;100360.05;104552;1309;74745;-84
2022/09/10 12:19:30;;;;;;;;;;;;;;;25.85;46.25;100358.63;104393;1310;61365;-83
2022/09/10 12:22:00;;;;;;;;;;;;;;;25.84;46.24;100356.16;104481;1309;61372;-83
2022/09/10 12:24:32;;;;;;;;;;;;;;;25.83;46.23;100356.96;104586;1309;72994;-83
2022/09/10 12:26:58;;;;;;;;;;;;;;;25.84;46.08;100353.09;104406;1309;76036;-83
2022/09/10 12:29:33;;;;;;;;;;;;;;;25.84;46.00;100353.66;104407;1309;61254;-84
2022/09/10 12:32:14;;;;;;;;;;;;;;;25.84;46.13;100347.55;104358;1309;61259;-83